Time;durP1;ratioP1;P1;durP2;ratioP2;P2;SDS_P1;SDS_P2;PMS_P1;PMS_P2;Temp;Humidity;BMP_temperature;BMP_pressure;BME280_temperature;BME280_humidity;BME280_pressure;Samples;Min_cycle;Max_cycle;Signal;HPM_P1;HPM_P2
2021/09/11 00:00:14;;;;;;;17.13;15.30;;;14.10;99.90;;;14.50;69.65;94500.31;5035613;28;20492;-73
2021/09/11 00:02:41;;;;;;;17.97;15.67;;;14.70;99.90;;;14.52;70.33;94500.84;5015031;28;20215;-71
2021/09/11 00:05:08;;;;;;;16.17;14.57;;;14.10;99.90;;;14.55;69.94;94500.28;5019502;28;20195;-72
2021/09/11 00:07:34;;;;;;;17.00;15.33;;;13.70;99.90;;;14.54;69.92;94488.03;5010965;28;20279;-73
2021/09/11 00:10:02;;;;;;;16.27;14.67;;;14.70;99.90;;;14.57;70.17;94492.84;5015768;28;20238;-73
2021/09/11 00:12:30;;;;;;;17.10;14.47;;;14.40;99.90;;;14.54;70.13;94493.38;4999431;28;20203;-73
2021/09/11 00:14:56;;;;;;;16.07;14.57;;;14.70;99.90;;;14.53;70.31;94499.78;5036799;28;21251;-72
2021/09/11 00:17:22;;;;;;;16.87;15.20;;;12.80;99.90;;;14.52;70.21;94492.84;5022801;28;20223;-72
2021/09/11 00:19:48;;;;;;;16.57;15.00;;;14.00;99.90;;;14.54;70.38;94488.81;5046185;28;20205;-72
2021/09/11 00:22:14;;;;;;;15.30;13.83;;;14.30;99.90;;;14.56;70.46;94500.03;5004453;28;20696;-72
2021/09/11 00:24:40;;;;;;;15.50;14.00;;;13.70;99.90;;;14.53;70.33;94497.13;5022358;28;20226;-72
2021/09/11 00:27:06;;;;;;;16.63;15.00;;;14.60;99.90;;;14.58;70.50;94497.88;5026037;28;20643;-72
2021/09/11 00:29:32;;;;;;;16.47;14.87;;;14.10;99.90;;;14.61;70.66;94501.84;5023806;28;20245;-72
2021/09/11 00:31:58;;;;;;;17.63;15.73;;;14.40;99.90;;;14.62;70.60;94495.47;5009487;28;20201;-72
2021/09/11 00:34:27;;;;;;;19.57;17.57;;;14.70;99.90;;;14.68;70.67;94503.16;5015747;28;20198;-72
2021/09/11 00:36:53;;;;;;;17.77;16.13;;;;;;;14.69;70.96;94501.28;5030062;28;20583;-72
2021/09/11 00:39:23;;;;;;;18.90;16.93;;;14.30;99.90;;;14.72;71.06;94503.41;5018589;28;20757;-72
2021/09/11 00:41:53;;;;;;;16.33;14.63;;;13.00;99.90;;;14.65;70.65;94506.38;5025918;28;20203;-72
2021/09/11 00:44:22;;;;;;;17.83;16.07;;;14.60;99.90;;;14.65;70.93;94501.03;5016066;28;20692;-72
2021/09/11 00:46:47;;;;;;;16.90;15.30;;;13.00;99.90;;;14.60;71.07;94506.41;5004007;28;20793;-72
2021/09/11 00:49:13;;;;;;;18.03;16.33;;;14.60;99.90;;;14.59;71.24;94507.47;5019754;28;20198;-71
2021/09/11 00:51:40;;;;;;;17.70;16.10;;;14.40;99.90;;;14.66;71.25;94515.19;5003270;28;20198;-71
2021/09/11 00:54:08;;;;;;;18.60;16.80;;;13.50;99.90;;;14.55;71.14;94501.09;5029767;28;20204;-72
2021/09/11 00:56:34;;;;;;;17.47;15.77;;;;;;;14.56;71.42;94501.91;5014976;28;20193;-72
2021/09/11 00:59:01;;;;;;;17.43;15.60;;;13.60;99.90;;;14.55;71.30;94509.09;5006694;28;20198;-72
2021/09/11 01:01:31;;;;;;;17.50;15.70;;;13.90;99.90;;;14.53;71.43;94505.91;5006639;28;20200;-72
2021/09/11 01:03:57;;;;;;;16.93;15.13;;;13.70;99.90;;;14.44;71.46;94506.75;5029366;28;20355;-72
2021/09/11 01:06:24;;;;;;;17.57;15.87;;;14.40;99.90;;;14.44;71.69;94517.44;5009553;28;20246;-72
2021/09/11 01:08:52;;;;;;;16.70;15.10;;;14.10;99.90;;;14.42;71.44;94511.56;5020643;28;20739;-72
2021/09/11 01:11:21;;;;;;;18.07;16.17;;;14.50;99.90;;;14.37;71.73;94513.16;5021654;28;20254;-72
2021/09/11 01:13:47;;;;;;;17.30;15.50;;;14.40;99.90;;;14.42;71.63;94508.88;5014200;28;20679;-72
2021/09/11 01:16:15;;;;;;;18.07;16.23;;;13.80;99.90;;;14.44;71.85;94507.53;5013840;28;20208;-71
2021/09/11 01:18:41;;;;;;;18.13;16.33;;;12.60;99.90;;;14.47;71.75;94500.88;5029417;28;20211;-72
2021/09/11 01:21:09;;;;;;;17.30;15.70;;;14.50;99.90;;;14.45;71.79;94503.81;5025116;28;20295;-72
2021/09/11 01:23:42;;;;;;;17.40;15.60;;;14.00;99.90;;;14.45;71.84;94513.66;5039377;28;20216;-71
2021/09/11 01:26:13;;;;;;;18.13;16.27;;;14.20;99.90;;;14.40;71.93;94506.50;5029816;28;20203;-72
2021/09/11 01:28:43;;;;;;;18.07;16.30;;;14.30;99.90;;;14.38;72.01;94506.78;5053448;28;20186;-71
2021/09/11 01:31:09;;;;;;;17.10;15.40;;;14.40;99.90;;;14.44;71.97;94509.44;5030124;28;20195;-73
2021/09/11 01:33:38;;;;;;;17.13;15.07;;;14.10;99.90;;;14.34;71.88;94503.03;5029028;28;20204;-72
2021/09/11 01:36:06;;;;;;;17.73;15.90;;;14.40;99.90;;;14.32;72.15;94505.16;5014716;28;20206;-73
2021/09/11 01:38:32;;;;;;;17.43;15.63;;;14.10;99.90;;;14.33;72.20;94503.31;5016031;28;20231;-72
2021/09/11 01:40:58;;;;;;;15.80;14.30;;;13.90;99.90;;;14.24;72.21;94500.38;5016574;28;20626;-73
2021/09/11 01:43:34;;;;;;;16.03;14.53;;;14.00;99.90;;;14.18;72.16;94506.81;5016019;28;20218;-73
2021/09/11 01:46:00;;;;;;;16.83;15.23;;;12.50;99.90;;;14.16;72.30;94510.81;5016503;28;20737;-73
2021/09/11 01:48:34;;;;;;;18.47;16.43;;;14.10;99.90;;;14.11;72.35;94516.94;5019995;28;20243;-73
2021/09/11 01:51:00;;;;;;;18.13;16.23;;;14.30;99.90;;;14.21;72.45;94511.59;5029066;28;20217;-72
2021/09/11 01:53:26;;;;;;;17.60;15.40;;;;;;;14.11;72.37;94506.28;5014179;28;20205;-72
2021/09/11 01:55:52;;;;;;;17.70;15.90;;;14.00;99.90;;;14.08;72.60;94509.50;5015790;28;20264;-72
2021/09/11 01:58:18;;;;;;;19.83;16.43;;;13.70;99.90;;;14.21;72.46;94506.25;5007046;28;20197;-72
2021/09/11 02:00:44;;;;;;;19.13;17.17;;;14.10;99.90;;;14.12;72.90;94510.56;5031302;28;20204;-71
2021/09/11 02:03:12;;;;;;;20.53;17.40;;;13.80;99.90;;;14.10;72.84;94519.91;5027199;28;20220;-73
2021/09/11 02:05:38;;;;;;;18.77;16.63;;;13.90;99.90;;;14.14;72.45;94510.28;5027952;28;20238;-72
2021/09/11 02:08:07;;;;;;;16.90;15.20;;;14.30;99.90;;;14.15;72.82;94520.69;5005552;28;20197;-72
2021/09/11 02:10:34;;;;;;;17.83;16.13;;;13.80;99.90;;;14.13;73.02;94514.03;5015424;28;20628;-73
2021/09/11 02:13:02;;;;;;;17.70;15.87;;;14.20;99.90;;;14.11;73.15;94522.28;5001929;28;20261;-73
2021/09/11 02:15:31;;;;;;;18.50;15.83;;;13.80;99.90;;;14.14;72.94;94512.94;5030668;28;20295;-72
2021/09/11 02:17:57;;;;;;;17.60;16.00;;;14.20;99.90;;;14.13;72.78;94508.69;4999272;28;20258;-72
2021/09/11 02:20:26;;;;;;;18.53;16.70;;;14.30;99.90;;;14.09;73.09;94521.78;5030864;28;20193;-72
2021/09/11 02:22:52;;;;;;;17.33;15.53;;;13.90;99.90;;;14.04;73.07;94512.97;5017957;28;20265;-72
2021/09/11 02:25:20;;;;;;;17.03;15.33;;;14.20;99.90;;;14.05;73.45;94519.91;5029374;28;20219;-72
2021/09/11 02:27:49;;;;;;;17.20;15.37;;;13.90;99.90;;;14.03;73.38;94522.84;4991671;28;20203;-71
2021/09/11 02:30:17;;;;;;;17.83;15.10;;;;;;;14.00;73.24;94517.25;5014735;28;20211;-72
2021/09/11 02:32:43;;;;;;;18.30;16.40;;;12.70;99.90;;;13.98;73.33;94524.72;5003962;28;20198;-73
2021/09/11 02:35:11;;;;;;;22.37;16.20;;;13.70;99.90;;;14.12;73.52;94523.88;5030226;28;20326;-73
2021/09/11 02:37:38;;;;;;;19.20;17.20;;;12.60;99.90;;;14.10;73.28;94515.34;5018822;28;20204;-72
2021/09/11 02:40:04;;;;;;;19.73;16.70;;;12.90;99.90;;;14.12;73.35;94512.44;5036056;28;20654;-72
2021/09/11 02:42:30;;;;;;;17.93;16.10;;;13.30;99.90;;;14.19;73.45;94513.75;5038218;28;20281;-72
2021/09/11 02:44:56;;;;;;;18.80;16.90;;;;;;;14.24;73.75;94520.91;5030858;28;20282;-72
2021/09/11 02:47:22;;;;;;;22.43;18.13;;;13.00;99.90;;;14.25;73.72;94515.31;5035261;28;20203;-72
2021/09/11 02:49:48;;;;;;;19.20;17.20;;;14.00;99.90;;;14.34;73.75;94513.72;5011738;28;20238;-72
2021/09/11 02:52:14;;;;;;;18.07;16.37;;;14.10;99.90;;;14.33;74.17;94524.63;5023553;28;20189;-72
2021/09/11 02:54:40;;;;;;;18.57;16.67;;;13.90;99.90;;;14.40;73.90;94514.50;5032974;28;20205;-73
2021/09/11 02:57:09;;;;;;;18.43;16.53;;;;;;;14.41;73.98;94507.28;4999563;28;20193;-71
2021/09/11 02:59:35;;;;;;;18.20;16.30;;;14.10;99.90;;;14.45;74.03;94511.00;5016720;28;20287;-73
2021/09/11 03:02:01;;;;;;;18.63;16.57;;;;;;;14.48;73.87;94515.78;5027011;28;20323;-70
2021/09/11 03:04:29;;;;;;;16.77;15.03;;;13.90;99.90;;;14.50;74.13;94522.47;5014746;28;20208;-70
2021/09/11 03:06:57;;;;;;;16.93;15.13;;;14.50;99.90;;;14.57;73.93;94504.28;5024903;28;20211;-69
2021/09/11 03:09:26;;;;;;;16.60;15.00;;;14.40;99.90;;;14.56;74.28;94509.91;4999795;28;20201;-69
2021/09/11 03:11:52;;;;;;;17.20;15.43;;;14.40;99.90;;;14.55;74.37;94505.63;5018250;28;20196;-73
2021/09/11 03:14:20;;;;;;;16.83;15.13;;;14.40;99.90;;;14.57;74.47;94508.84;5012547;28;20207;-72
2021/09/11 03:16:46;;;;;;;17.50;15.90;;;14.60;99.90;;;14.56;74.29;94502.69;5023463;28;20203;-69
2021/09/11 03:19:14;;;;;;;16.50;14.93;;;14.60;99.90;;;14.59;74.13;94493.34;5028847;28;20203;-69
2021/09/11 03:21:42;;;;;;;17.83;15.77;;;14.60;99.90;;;14.57;74.50;94498.94;5012869;28;20223;-69
2021/09/11 03:24:08;;;;;;;16.43;14.70;;;14.50;99.90;;;14.54;74.41;94493.38;4996155;28;20528;-69
2021/09/11 03:26:34;;;;;;;16.90;14.47;;;14.30;99.90;;;14.50;74.57;94498.47;5028827;28;20287;-70
2021/09/11 03:28:59;;;;;;;15.97;14.47;;;14.10;99.90;;;14.49;74.73;94504.06;5015551;28;20200;-69
2021/09/11 03:31:25;;;;;;;17.77;15.97;;;14.20;99.90;;;14.50;74.48;94503.00;4995184;28;20212;-72
2021/09/11 03:33:51;;;;;;;16.53;14.77;;;13.80;99.90;;;14.50;74.62;94500.31;5015116;28;20197;-73
2021/09/11 03:36:22;;;;;;;17.20;15.43;;;13.70;99.90;;;14.55;74.31;94513.63;4997711;28;20708;-72
2021/09/11 03:38:48;;;;;;;16.30;14.80;;;;;;;14.53;74.55;94505.91;5014923;28;20226;-71
2021/09/11 03:41:16;;;;;;;16.13;14.63;;;14.30;99.90;;;14.55;74.87;94505.63;5023446;28;20249;-72
2021/09/11 03:43:42;;;;;;;17.30;15.50;;;14.50;99.90;;;14.64;74.73;94520.78;5028543;28;20263;-72
2021/09/11 03:46:08;;;;;;;17.77;16.07;;;;;;;14.63;74.84;94511.22;5013873;28;20196;-72
2021/09/11 03:48:34;;;;;;;17.17;15.47;;;14.30;99.90;;;14.62;74.77;94498.94;5009714;28;20240;-73
2021/09/11 03:51:01;;;;;;;17.53;15.60;;;14.40;99.90;;;14.67;75.01;94508.78;5027031;28;20249;-73
2021/09/11 03:53:27;;;;;;;19.10;17.20;;;14.40;99.90;;;14.70;74.87;94500.22;5012839;28;20524;-72
2021/09/11 03:55:56;;;;;;;18.30;16.50;;;14.20;99.90;;;14.75;75.00;94513.53;4996864;28;20263;-72
2021/09/11 03:58:21;;;;;;;16.83;15.30;;;13.40;99.90;;;14.72;74.98;94506.88;5033165;28;20206;-71
2021/09/11 04:00:49;;;;;;;15.90;14.33;;;14.40;99.90;;;14.69;75.06;94517.31;5006819;28;20207;-72
2021/09/11 04:03:15;;;;;;;17.70;15.87;;;14.80;99.90;;;14.74;75.19;94509.28;5036077;28;20244;-72
2021/09/11 04:05:41;;;;;;;17.67;15.87;;;14.40;99.90;;;14.75;75.22;94517.00;5015004;28;20238;-72
2021/09/11 04:08:07;;;;;;;17.23;15.50;;;14.50;99.90;;;14.78;75.02;94515.66;5012891;28;20204;-73
2021/09/11 04:10:33;;;;;;;15.97;14.40;;;13.00;99.90;;;14.75;75.31;94513.53;5024816;28;20199;-73
2021/09/11 04:12:59;;;;;;;15.03;13.60;;;14.50;99.90;;;14.75;75.03;94513.53;5057307;28;20213;-72
2021/09/11 04:15:26;;;;;;;15.10;13.60;;;;;;;14.69;75.17;94515.44;5028532;28;20202;-71
2021/09/11 04:17:56;;;;;;;15.23;13.73;;;14.50;99.90;;;14.78;75.33;94515.66;5015435;28;20193;-73
2021/09/11 04:20:22;;;;;;;16.90;15.20;;;14.40;99.90;;;14.71;75.25;94507.94;5030877;28;20219;-72
2021/09/11 04:22:48;;;;;;;17.13;15.27;;;;;;;14.67;75.25;94520.22;5019948;28;20245;-72
2021/09/11 04:25:14;;;;;;;17.47;14.87;;;;;;;14.71;75.49;94520.47;5012331;28;20707;-72
2021/09/11 04:27:40;;;;;;;16.57;15.07;;;13.80;99.90;;;14.75;75.35;94517.00;5017053;28;20200;-72
2021/09/11 04:30:09;;;;;;;17.30;15.60;;;13.80;99.90;;;14.77;75.10;94520.19;5019687;28;20204;-72
2021/09/11 04:32:37;;;;;;;16.97;15.27;;;14.50;99.90;;;14.81;75.63;94515.09;5040149;28;20660;-73
2021/09/11 04:35:04;;;;;;;18.27;16.37;;;;;;;14.90;75.56;94521.47;5012217;28;20196;-72
2021/09/11 04:37:30;;;;;;;17.60;15.80;;;14.70;99.90;;;14.86;75.83;94523.09;5004950;28;20563;-72
2021/09/11 04:39:56;;;;;;;17.03;15.33;;;13.60;99.90;;;14.85;75.60;94513.47;5014165;28;20288;-71
2021/09/11 04:42:22;;;;;;;16.60;15.10;;;14.10;99.90;;;14.91;75.75;94519.59;5015006;28;20652;-72
2021/09/11 04:44:48;;;;;;;18.00;16.20;;;14.50;99.90;;;14.97;76.12;94519.31;5027671;28;20227;-72
2021/09/11 04:47:13;;;;;;;20.27;17.50;;;13.30;99.90;;;14.91;75.75;94520.38;5019159;28;20215;-72
2021/09/11 04:49:40;;;;;;;19.87;17.73;;;;;;;14.86;75.67;94525.75;5011164;28;20241;-72
2021/09/11 04:52:06;;;;;;;19.23;17.33;;;14.10;99.90;;;14.85;75.73;94526.81;5028328;28;20201;-72
2021/09/11 04:54:32;;;;;;;17.87;16.07;;;14.40;99.90;;;14.84;75.80;94514.56;4996125;28;20214;-72
2021/09/11 04:56:58;;;;;;;18.33;16.57;;;14.90;99.90;;;14.86;76.12;94517.75;5029084;28;20283;-72
2021/09/11 04:59:26;;;;;;;18.67;16.87;;;14.30;99.90;;;14.81;75.98;94526.56;5026771;28;20307;-72
2021/09/11 05:01:56;;;;;;;17.93;16.13;;;14.70;99.90;;;14.85;75.90;94529.50;5030865;28;20195;-73
2021/09/11 05:04:22;;;;;;;16.80;15.13;;;14.00;99.90;;;14.69;75.82;94517.31;5013301;28;20208;-72
2021/09/11 05:06:48;;;;;;;16.23;14.60;;;14.70;99.90;;;14.63;76.10;94526.41;5009661;28;20227;-73
2021/09/11 05:09:20;;;;;;;16.83;15.23;;;14.30;99.90;;;14.65;76.01;94529.59;5031016;28;20239;-72
2021/09/11 05:11:47;;;;;;;16.73;15.17;;;13.20;99.90;;;14.59;76.30;94523.50;4992498;28;20283;-73
2021/09/11 05:14:15;;;;;;;20.17;16.03;;;14.50;99.90;;;14.58;76.08;94537.09;5014621;28;20197;-73
2021/09/11 05:16:41;;;;;;;18.93;17.03;;;14.20;99.90;;;14.49;76.00;94522.72;5004786;28;20217;-72
2021/09/11 05:19:09;;;;;;;17.83;16.03;;;14.40;99.90;;;14.48;75.92;94521.13;5013782;28;20268;-73
2021/09/11 05:21:35;;;;;;;17.40;15.73;;;14.40;99.90;;;14.48;76.10;94534.47;5012896;28;20226;-69
2021/09/11 05:24:01;;;;;;;16.83;15.20;;;14.30;99.90;;;14.50;76.25;94529.66;5029283;28;20223;-70
2021/09/11 05:26:26;;;;;;;17.53;15.80;;;12.10;99.90;;;14.42;76.19;94530.22;5017503;28;20196;-70
2021/09/11 05:28:52;;;;;;;19.17;17.10;;;14.30;99.90;;;14.41;76.02;94544.63;5031005;28;20200;-69
2021/09/11 05:31:18;;;;;;;18.27;16.47;;;13.90;99.90;;;14.49;76.25;94539.53;4996935;28;20642;-69
2021/09/11 05:33:44;;;;;;;18.37;16.50;;;14.30;99.90;;;14.58;76.33;94556.56;5017233;28;20216;-69
2021/09/11 05:36:12;;;;;;;18.67;16.87;;;13.70;99.90;;;14.61;76.25;94541.88;5033673;28;20205;-69
2021/09/11 05:38:38;;;;;;;19.10;17.10;;;14.30;99.90;;;14.80;76.18;94546.34;5048088;28;20525;-68
2021/09/11 05:41:04;;;;;;;17.83;16.13;;;15.10;99.90;;;14.98;76.44;94554.78;5047035;28;20204;-70
2021/09/11 05:43:30;;;;;;;16.83;15.03;;;14.90;99.90;;;15.13;76.43;94544.81;5030503;28;20280;-68
2021/09/11 05:45:56;;;;;;;16.53;14.83;;;15.00;99.90;;;15.30;76.71;94549.78;5009074;28;20197;-68
2021/09/11 05:48:24;;;;;;;16.40;14.90;;;14.40;99.90;;;15.37;76.69;94542.28;5015457;28;20211;-69
2021/09/11 05:50:50;;;;;;;16.57;14.57;;;15.20;99.90;;;15.48;76.72;94541.13;5027843;28;20208;-70
2021/09/11 05:53:16;;;;;;;16.07;14.40;;;15.40;99.90;;;15.49;76.69;94540.06;5027676;28;20513;-69
2021/09/11 05:55:45;;;;;;;15.87;14.17;;;15.10;99.90;;;15.66;76.58;94564.50;5030805;28;20200;-69
2021/09/11 05:58:11;;;;;;;14.77;13.40;;;15.40;99.90;;;15.60;76.52;94546.13;5015351;28;20287;-68
2021/09/11 06:00:39;;;;;;;15.33;13.93;;;;;;;15.60;76.75;94544.25;5010623;28;20779;-68
2021/09/11 06:03:06;;;;;;;14.60;13.30;;;14.00;99.90;;;15.57;76.40;94552.03;5001894;28;20659;-69
2021/09/11 06:05:37;;;;;;;14.20;12.90;;;;;;;15.65;76.80;94548.75;5026847;28;20246;-71
2021/09/11 06:08:05;;;;;;;14.67;13.33;;;14.90;99.90;;;15.69;76.67;94552.47;5014798;28;20206;-70
2021/09/11 06:10:32;;;;;;;15.40;13.67;;;;;;;15.74;76.83;94553.25;5010108;28;20200;-69
2021/09/11 06:12:59;;;;;;;14.77;13.30;;;14.80;99.90;;;15.87;76.67;94557.94;5049728;28;20249;-69
2021/09/11 06:15:26;;;;;;;13.60;12.30;;;15.30;99.90;;;16.02;76.68;94554.31;5026534;28;20209;-69
2021/09/11 06:17:52;;;;;;;14.43;13.00;;;15.60;99.90;;;16.15;76.67;94555.53;5030213;28;20195;-69
2021/09/11 06:20:21;;;;;;;14.00;12.50;;;15.70;99.90;;;16.32;76.80;94567.38;5009643;28;20282;-70
2021/09/11 06:22:47;;;;;;;13.30;12.10;;;15.70;99.90;;;16.52;76.90;94561.00;5031065;28;20255;-69
2021/09/11 06:25:14;;;;;;;12.83;11.63;;;16.30;99.90;;;16.82;76.68;94557.25;5026838;28;20288;-70
2021/09/11 06:27:41;;;;;;;13.23;11.93;;;16.20;99.90;;;17.08;77.20;94563.06;5003441;28;20264;-69
2021/09/11 06:30:12;;;;;;;12.43;11.33;;;16.20;99.90;;;17.40;76.60;94571.97;4996112;28;20209;-69
2021/09/11 06:32:39;;;;;;;12.30;11.07;;;17.30;99.90;;;17.73;76.66;94578.19;5028353;28;20692;-69
2021/09/11 06:35:06;;;;;;;10.00;9.20;;;18.30;99.90;;;19.11;76.63;94618.44;4994169;28;20207;-69
2021/09/11 06:37:33;;;;;;;10.07;8.47;;;18.00;99.90;;;20.12;76.72;94570.47;5012175;28;20259;-72
2021/09/11 06:40:00;;;;;;;8.60;7.90;;;20.20;99.90;;;21.24;76.54;94598.75;5013486;28;20210;-71
2021/09/11 06:42:26;;;;;;;8.07;7.23;;;20.30;99.90;;;23.17;76.21;94621.16;5016235;28;20215;-72
2021/09/11 06:44:54;;;;;;;7.73;6.93;;;24.20;99.90;;;24.91;75.70;94595.94;5008885;28;20258;-72
2021/09/11 06:47:19;;;;;;;7.20;6.50;;;23.90;99.90;;;27.10;75.26;94635.03;5017686;28;20200;-71
2021/09/11 06:49:45;;;;;;;6.63;6.10;;;26.20;99.90;;;28.65;74.66;94610.53;5004678;28;20246;-73
2021/09/11 06:52:11;;;;;;;6.33;5.73;;;28.20;99.90;;;30.03;74.03;94599.22;5027294;28;20232;-73
2021/09/11 06:54:38;;;;;;;6.17;5.57;;;29.90;99.90;;;31.38;73.67;94583.13;4994521;28;21955;-73
2021/09/11 06:57:04;;;;;;;6.07;5.57;;;31.30;99.90;;;31.52;72.81;94546.84;5029111;28;20200;-72
2021/09/11 06:59:30;;;;;;;6.17;5.53;;;32.00;99.90;;;30.86;72.62;94534.91;5007595;28;20572;-72
2021/09/11 07:01:56;;;;;;;6.10;5.50;;;31.90;99.90;;;31.28;72.21;94558.38;5011676;28;20200;-73
2021/09/11 07:04:22;;;;;;;5.40;5.00;;;32.20;98.50;;;32.07;70.94;94588.72;5037756;28;20200;-72
2021/09/11 07:06:48;;;;;;;5.30;4.90;;;33.00;97.90;;;33.27;70.93;94591.91;5011721;28;20711;-73
2021/09/11 07:09:14;;;;;;;5.00;4.60;;;34.20;94.30;;;34.13;69.85;94578.91;4992670;28;20204;-74
2021/09/11 07:11:40;;;;;;;5.80;5.30;;;35.30;91.50;;;35.26;68.88;94575.59;5027929;28;20193;-74
2021/09/11 07:14:08;;;;;;;5.40;5.00;;;36.40;88.70;;;35.93;67.91;94564.00;5024989;28;20200;-73
2021/09/11 07:16:37;;;;;;;5.50;4.95;;;37.10;83.40;;;36.20;67.45;94517.22;5030526;28;20204;-72
2021/09/11 07:19:05;;;;;;;5.15;4.57;;;38.00;79.20;;;35.61;67.05;94525.69;5028483;28;20196;-72
2021/09/11 07:21:33;;;;;;;5.72;5.05;;;37.90;76.90;;;36.25;65.99;94528.59;5028198;28;20346;-73
2021/09/11 07:24:01;;;;;;;5.07;4.78;;;38.60;74.90;;;37.14;64.82;94566.91;5021124;28;20212;-74
2021/09/11 07:26:26;;;;;;;5.07;4.65;;;39.30;73.00;;;37.76;64.53;94510.19;5045985;28;20305;-73
2021/09/11 07:28:55;;;;;;;5.05;4.18;;;40.00;69.20;;;38.26;63.35;94554.34;5012319;28;20318;-74
2021/09/11 07:31:23;;;;;;;4.43;4.13;;;40.60;68.10;;;38.08;63.19;94546.38;5036548;28;20205;-69
2021/09/11 07:33:52;;;;;;;3.97;3.58;;;40.90;64.30;;;38.65;61.90;94590.41;5030606;28;20239;-69
2021/09/11 07:36:18;;;;;;;4.63;4.30;;;41.30;65.00;;;39.50;60.95;94599.66;5033178;28;20197;-69
2021/09/11 07:38:43;;;;;;;4.03;3.72;;;42.00;62.30;;;39.31;60.58;94545.00;5014760;28;20199;-70
2021/09/11 07:41:10;;;;;;;4.80;3.97;;;42.20;61.10;;;40.56;58.94;94635.13;5015197;28;20223;-69
2021/09/11 07:43:39;;;;;;;4.90;4.47;;;44.10;69.10;;;41.09;58.33;94489.72;5027658;28;20277;-69
2021/09/11 07:46:09;;;;;;;5.90;3.70;;;44.60;63.90;;;40.71;57.28;94559.19;5011529;28;20197;-69
2021/09/11 07:48:38;;;;;;;3.88;3.47;;;43.60;56.20;;;39.56;56.93;94520.19;5011763;28;20199;-69
2021/09/11 07:51:03;;;;;;;3.50;3.20;;;42.60;55.80;;;39.57;56.40;94451.56;5016411;28;20282;-70
2021/09/11 07:53:32;;;;;;;3.85;3.55;;;42.90;57.50;;;37.78;55.96;94433.00;5015299;28;20303;-69
2021/09/11 07:55:59;;;;;;;3.30;3.10;;;41.60;56.20;;;37.97;55.26;94673.22;5028452;28;20230;-68
2021/09/11 07:58:25;;;;;;;3.65;3.35;;;40.60;57.70;;;39.33;54.21;94542.56;4995200;28;20219;-68
2021/09/11 08:00:55;;;;;;;3.75;3.38;;;41.60;56.80;;;39.13;53.58;94466.94;5016152;28;20219;-70
2021/09/11 08:03:22;;;;;;;3.95;3.40;;;42.00;55.20;;;39.34;53.25;94560.78;5029317;28;20224;-69
2021/09/11 08:05:50;;;;;;;4.22;3.92;;;42.10;57.40;;;39.56;52.50;94508.28;4999852;28;20238;-69
2021/09/11 08:08:19;;;;;;;4.05;3.75;;;42.20;57.10;;;39.18;52.12;94535.78;4996377;28;20184;-70
2021/09/11 08:10:47;;;;;;;4.13;3.70;;;42.20;56.20;;;38.60;51.34;94490.34;5019340;28;20585;-70
2021/09/11 08:13:19;;;;;;;3.97;3.65;;;42.10;58.80;;;38.93;51.18;94566.84;5024636;28;20282;-69
2021/09/11 08:15:45;;;;;;;4.85;3.67;;;42.10;57.00;;;39.48;49.90;94500.19;5027779;28;20236;-68
2021/09/11 08:18:11;;;;;;;4.20;3.80;;;42.90;57.60;;;39.53;49.39;94564.69;5014005;28;20184;-69
2021/09/11 08:20:38;;;;;;;3.90;3.60;;;42.70;54.70;;;38.70;49.41;94431.09;5011964;28;20207;-69
2021/09/11 08:23:07;;;;;;;4.47;4.00;;;42.20;57.40;;;39.36;48.87;94622.97;5030268;28;20220;-70
2021/09/11 08:25:35;;;;;;;4.47;3.95;;;42.60;57.00;;;39.67;48.40;94445.72;5016921;28;20275;-70
2021/09/11 08:28:01;;;;;;;4.28;3.88;;;43.00;53.10;;;40.36;47.49;94632.47;5026936;28;20204;-69
2021/09/11 08:30:28;;;;;;;4.28;3.95;;;42.80;54.90;;;39.84;47.63;94513.16;5010632;28;20258;-70
2021/09/11 08:32:54;;;;;;;4.13;3.83;;;42.70;53.80;;;40.18;46.69;94662.72;5029484;28;20287;-69
2021/09/11 08:35:20;;;;;;;4.18;3.88;;;42.70;53.10;;;40.11;46.29;94415.56;4989814;28;20278;-69
2021/09/11 08:37:46;;;;;;;4.30;3.90;;;43.00;54.90;;;39.77;45.66;94578.00;5014013;28;20275;-69
2021/09/11 08:40:14;;;;;;;4.32;4.03;;;42.90;53.30;;;39.91;45.35;94551.84;5010368;28;20679;-70
2021/09/11 08:42:44;;;;;;;5.30;3.92;;;43.20;53.60;;;40.27;44.92;94626.75;4997778;28;20219;-70
2021/09/11 08:45:15;;;;;;;4.10;3.80;;;43.30;53.30;;;40.43;44.72;94446.00;4998269;28;20196;-70
2021/09/11 08:47:45;;;;;;;4.10;3.78;;;43.50;55.10;;;40.61;44.16;94582.53;5028381;28;20247;-70
2021/09/11 08:50:17;;;;;;;4.75;4.35;;;43.70;53.90;;;39.18;44.37;94433.13;4987026;28;20698;-70
2021/09/11 08:52:45;;;;;;;5.93;4.03;;;42.50;53.30;;;38.92;43.79;94568.06;5033425;28;20192;-70
2021/09/11 08:55:16;;;;;;;3.97;3.75;;;41.80;56.20;;;39.08;43.38;94600.63;5012610;28;20192;-70
2021/09/11 08:58:06;;;;;;;4.40;4.00;;;41.90;55.80;;;39.43;43.03;94635.91;5013052;28;20271;-70
2021/09/11 09:00:43;;;;;;;4.20;3.80;;;42.10;54.50;;;39.29;42.53;94531.56;5015972;28;20200;-70
2021/09/11 09:03:37;;;;;;;3.65;3.45;;;42.30;54.30;;;39.28;42.41;94604.94;5011943;28;20596;-70
2021/09/11 09:06:20;;;;;;;3.95;3.70;;;42.20;56.00;;;40.72;41.55;94652.53;4997964;28;20197;-69
2021/09/11 09:08:54;;;;;;;4.07;3.70;;;43.60;53.40;;;39.53;41.57;94625.78;5011835;28;20192;-69
2021/09/11 09:11:31;;;;;;;3.75;3.45;;;42.50;53.60;;;41.13;40.98;94713.03;5027771;28;20271;-72
2021/09/11 09:14:06;;;;;;;4.22;3.83;;;43.70;51.60;;;39.89;40.84;94410.63;5008187;28;20216;-72
2021/09/11 09:16:40;;;;;;;4.05;3.80;;;43.00;52.10;;;40.84;40.19;94678.81;5026739;28;20446;-72
2021/09/11 09:19:15;;;;;;;3.72;3.53;;;43.50;53.40;;;41.38;39.66;94600.94;5011115;28;20887;-71
2021/09/11 09:21:43;;;;;;;4.05;3.65;;;44.50;51.70;;;40.08;40.07;94416.44;5045020;28;20254;-72
2021/09/11 09:24:13;;;;;;;4.30;3.75;;;43.70;51.60;;;39.95;39.51;94497.00;5039651;28;20936;-72
2021/09/11 09:26:55;;;;;;;4.00;3.70;;;44.70;59.10;;;40.72;38.84;94543.28;5019168;28;20283;-73
2021/09/11 09:29:22;;;;;;;4.20;3.80;;;44.00;51.80;;;41.26;38.64;94571.88;4994382;28;20189;-73
2021/09/11 09:31:54;;;;;;;4.10;3.80;;;44.00;52.00;;;39.26;38.58;94385.34;5026765;28;20274;-70
2021/09/11 09:34:41;;;;;;;4.10;3.80;;;42.70;54.00;;;39.82;38.17;94568.38;5043465;28;20192;-70
2021/09/11 09:37:18;;;;;;;4.20;3.88;;;43.20;53.80;;;39.80;38.17;94584.66;5024467;28;20589;-70
2021/09/11 09:39:49;;;;;;;4.22;3.90;;;43.20;52.20;;;41.07;37.67;94400.31;5027806;28;20191;-70
2021/09/11 09:42:18;;;;;;;4.28;3.92;;;44.40;51.40;;;39.86;37.74;94413.50;5027597;28;20234;-69
2021/09/11 09:44:51;;;;;;;4.75;4.35;;;43.50;51.70;;;41.16;37.13;94570.19;5041854;28;20291;-70
2021/09/11 09:47:22;;;;;;;3.67;3.38;;;43.70;51.50;;;42.18;36.92;94595.94;5011950;28;20192;-70
2021/09/11 09:50:14;;;;;;;4.50;4.18;;;44.90;50.50;;;41.03;36.48;94586.09;5029773;28;20202;-70
2021/09/11 09:52:40;;;;;;;4.43;4.03;;;44.20;52.10;;;41.34;36.28;94461.81;5036478;28;20188;-73
2021/09/11 09:55:08;;;;;;;4.05;3.75;;;44.60;51.10;;;42.42;35.73;94530.16;5012856;28;20180;-72
2021/09/11 09:57:37;;;;;;;4.55;4.18;;;45.60;50.20;;;40.45;36.15;94326.81;5020368;28;20203;-72
2021/09/11 10:00:04;;;;;;;4.10;3.80;;;44.30;50.60;;;42.60;35.33;94555.44;5011850;28;20251;-73
2021/09/11 10:02:31;;;;;;;4.22;3.92;;;46.00;49.80;;;42.10;35.22;94386.38;5010125;28;20283;-70
2021/09/11 10:04:57;;;;;;;4.22;3.92;;;45.70;49.80;;;42.20;34.92;94496.72;4998995;28;20530;-70
2021/09/11 10:07:28;;;;;;;4.10;3.80;;;45.90;50.60;;;42.41;34.59;94523.06;4991679;28;20198;-70
2021/09/11 10:09:55;;;;;;;4.20;3.90;;;46.20;48.20;;;41.86;34.72;94567.16;5009789;28;20703;-69
2021/09/11 10:12:41;;;;;;;5.13;4.70;;;45.30;49.40;;;42.58;34.21;94526.41;5005488;28;20192;-70
2021/09/11 10:15:33;;;;;;;4.40;4.05;;;46.00;48.60;;;43.66;33.45;94649.09;5036858;28;20271;-69
2021/09/11 10:17:59;;;;;;;4.90;4.45;;;47.10;48.30;;;44.12;33.62;94475.91;5009130;28;20220;-69